createdAt,value
2019-06-20T00:01:49.189Z,6.63
2019-06-20T00:04:17.709Z,7.03
2019-06-20T00:06:46.007Z,6.87
2019-06-20T00:09:14.303Z,7.03
2019-06-20T00:11:42.639Z,6.80
2019-06-20T00:14:11.016Z,6.90
2019-06-20T00:16:39.546Z,6.30
2019-06-20T00:19:07.885Z,7.30
2019-06-20T00:21:36.177Z,6.40
2019-06-20T00:24:06.117Z,7.30
2019-06-20T00:26:34.440Z,7.80
2019-06-20T00:29:02.791Z,7.10
2019-06-20T00:31:31.148Z,6.83
2019-06-20T00:33:59.430Z,6.33
2019-06-20T00:36:27.830Z,7.50
2019-06-20T00:38:56.249Z,6.87
2019-06-20T00:41:24.596Z,8.57
2019-06-20T00:43:52.982Z,7.73
2019-06-20T00:46:21.293Z,8.27
2019-06-20T00:48:49.582Z,7.90
2019-06-20T00:51:17.944Z,9.30
2019-06-20T00:53:46.250Z,8.27
2019-06-20T00:56:14.538Z,6.70
2019-06-20T00:58:42.863Z,8.80
2019-06-20T01:01:11.284Z,7.90
2019-06-20T01:03:39.617Z,10.00
2019-06-20T01:06:07.922Z,9.90
2019-06-20T01:08:36.239Z,9.90
2019-06-20T01:11:04.545Z,10.47
2019-06-20T01:13:34.262Z,9.63
2019-06-20T01:16:02.916Z,10.53
2019-06-20T01:18:31.239Z,10.70
2019-06-20T01:20:59.580Z,11.83
2019-06-20T01:23:27.879Z,11.97
2019-06-20T01:25:56.226Z,12.73
2019-06-20T01:28:24.579Z,13.53
2019-06-20T01:30:52.889Z,12.27
2019-06-20T01:33:21.184Z,12.13
2019-06-20T01:35:49.521Z,13.40
2019-06-20T01:38:17.816Z,13.33
2019-06-20T01:40:46.114Z,14.30
2019-06-20T01:43:14.607Z,13.70
2019-06-20T01:45:42.916Z,13.20
2019-06-20T01:48:12.408Z,13.20
2019-06-20T01:50:40.751Z,13.60
2019-06-20T01:53:09.100Z,13.97
2019-06-20T01:55:37.395Z,14.27
2019-06-20T01:58:05.778Z,14.10
2019-06-20T02:00:49.644Z,13.73
2019-06-20T02:03:18.199Z,13.20
2019-06-20T02:05:46.625Z,14.00
2019-06-20T02:08:15.057Z,14.70
2019-06-20T02:10:43.362Z,14.10
2019-06-20T02:13:11.696Z,14.87
2019-06-20T02:15:40.030Z,15.00
2019-06-20T02:18:08.324Z,16.60
2019-06-20T02:20:38.661Z,15.47
2019-06-20T02:23:06.980Z,16.10
2019-06-20T02:25:35.350Z,16.00
2019-06-20T02:28:04.029Z,17.77
2019-06-20T02:30:32.411Z,17.40
2019-06-20T02:33:00.830Z,18.57
2019-06-20T02:35:29.172Z,17.23
2019-06-20T02:37:57.468Z,18.70
2019-06-20T02:40:25.790Z,18.13
2019-06-20T02:42:54.245Z,19.00
2019-06-20T02:45:22.721Z,19.10
2019-06-20T02:47:51.059Z,17.70
2019-06-20T02:50:19.973Z,18.67
2019-06-20T02:52:48.337Z,19.60
2019-06-20T02:55:16.679Z,19.13
2019-06-20T02:57:45.031Z,19.33
2019-06-20T03:00:13.364Z,20.30
2019-06-20T03:02:41.688Z,22.50
2019-06-20T03:05:11.055Z,19.17
2019-06-20T03:07:39.567Z,18.77
2019-06-20T03:10:07.865Z,19.10
2019-06-20T03:12:36.309Z,21.37
2019-06-20T03:15:05.747Z,20.60
2019-06-20T03:17:34.106Z,22.03
2019-06-20T03:20:02.497Z,23.40
2019-06-20T03:22:30.786Z,24.73
2019-06-20T03:24:59.104Z,19.50
2019-06-20T03:27:27.460Z,21.70
2019-06-20T03:29:55.849Z,20.43
2019-06-20T03:32:24.239Z,20.03
2019-06-20T03:34:52.654Z,22.97
2019-06-20T03:37:21.000Z,22.50
2019-06-20T03:39:49.299Z,22.87
2019-06-20T03:42:17.614Z,20.90
2019-06-20T03:45:01.231Z,20.20
2019-06-20T03:47:15.974Z,21.10
2019-06-20T03:49:44.327Z,20.13
2019-06-20T03:52:12.733Z,20.97
2019-06-20T03:54:41.082Z,19.77
2019-06-20T03:57:09.457Z,19.43
2019-06-20T03:59:38.518Z,19.47
2019-06-20T04:02:06.849Z,20.60
2019-06-20T04:04:35.161Z,18.37
2019-06-20T04:07:03.512Z,18.13
2019-06-20T04:09:31.906Z,17.07
2019-06-20T04:12:00.209Z,18.03
2019-06-20T04:14:28.539Z,16.03
2019-06-20T04:16:56.907Z,17.30
2019-06-20T04:19:25.990Z,17.83
2019-06-20T04:21:54.280Z,16.37
2019-06-20T04:24:22.600Z,17.77
2019-06-20T04:26:51.039Z,17.80
2019-06-20T04:29:19.424Z,16.17
2019-06-20T04:31:48.117Z,17.20
2019-06-20T04:34:16.473Z,18.20
2019-06-20T04:36:47.979Z,17.07
2019-06-20T04:39:19.131Z,17.00
2019-06-20T04:41:46.015Z,17.20
2019-06-20T04:44:14.318Z,17.23
2019-06-20T04:46:47.072Z,18.40
2019-06-20T04:49:15.496Z,18.17
2019-06-20T04:51:43.829Z,17.87
2019-06-20T04:54:12.159Z,18.17
2019-06-20T04:56:40.591Z,18.07
2019-06-20T04:59:08.964Z,16.17
2019-06-20T05:01:37.260Z,17.57
2019-06-20T05:04:05.595Z,18.33
2019-06-20T05:06:33.911Z,17.30
2019-06-20T05:09:02.261Z,18.43
2019-06-20T05:11:30.668Z,17.20
2019-06-20T05:13:58.981Z,16.70
2019-06-20T05:16:27.311Z,17.43
2019-06-20T05:18:55.797Z,17.97
2019-06-20T05:21:24.120Z,17.90
2019-06-20T05:23:52.446Z,16.97
2019-06-20T05:26:20.965Z,15.90
2019-06-20T05:28:49.759Z,14.87
2019-06-20T05:31:18.105Z,15.97
2019-06-20T05:33:46.658Z,17.73
2019-06-20T05:36:14.954Z,16.00
2019-06-20T05:38:43.345Z,16.37
2019-06-20T05:41:11.762Z,14.43
2019-06-20T05:43:40.108Z,16.63
2019-06-20T05:46:11.069Z,14.73
2019-06-20T05:48:38.592Z,16.30
2019-06-20T05:51:06.978Z,16.53
2019-06-20T05:53:35.330Z,14.23
2019-06-20T05:56:03.641Z,15.80
2019-06-20T05:58:31.931Z,15.87
2019-06-20T06:01:00.262Z,14.30
2019-06-20T06:03:28.545Z,14.13
2019-06-20T06:05:57.003Z,16.03
2019-06-20T06:08:25.276Z,14.17
2019-06-20T06:10:53.565Z,15.00
2019-06-20T06:13:21.889Z,13.73
2019-06-20T06:15:50.303Z,15.20
2019-06-20T06:18:18.779Z,16.43
2019-06-20T06:20:47.122Z,16.07
2019-06-20T06:23:15.422Z,15.13
2019-06-20T06:25:43.897Z,13.70
2019-06-20T06:28:12.767Z,13.40
2019-06-20T06:30:41.222Z,11.63
2019-06-20T06:33:09.658Z,13.10
2019-06-20T06:35:37.959Z,14.70
2019-06-20T06:38:06.280Z,12.63
2019-06-20T06:40:34.703Z,11.47
2019-06-20T06:43:03.047Z,12.13
2019-06-20T06:45:31.487Z,12.30
2019-06-20T06:47:59.782Z,12.10
2019-06-20T06:50:28.736Z,10.50
2019-06-20T06:52:57.098Z,10.60
2019-06-20T06:55:27.654Z,11.00
2019-06-20T06:57:55.687Z,11.23
2019-06-20T07:00:23.995Z,10.30
2019-06-20T07:02:52.293Z,11.63
2019-06-20T07:05:20.719Z,10.90
2019-06-20T07:07:49.022Z,10.53
2019-06-20T07:10:17.311Z,12.73
2019-06-20T07:12:45.648Z,12.33
2019-06-20T07:15:14.160Z,10.90
2019-06-20T07:17:42.449Z,12.83
2019-06-20T07:20:10.766Z,13.37
2019-06-20T07:22:39.144Z,11.37
2019-06-20T07:25:07.468Z,11.83
2019-06-20T07:27:35.820Z,9.63
2019-06-20T07:30:06.709Z,12.00
2019-06-20T07:32:35.000Z,10.60
2019-06-20T07:35:04.627Z,13.73
2019-06-20T07:37:33.168Z,11.80
2019-06-20T07:40:01.490Z,12.47
2019-06-20T07:42:30.548Z,10.97
2019-06-20T07:44:58.873Z,12.00
2019-06-20T07:47:27.206Z,13.20
2019-06-20T07:49:55.605Z,11.60
2019-06-20T07:52:23.891Z,11.20
2019-06-20T07:54:52.325Z,11.17
2019-06-20T07:57:20.610Z,12.80
2019-06-20T07:59:48.998Z,12.40
2019-06-20T08:02:17.419Z,10.50
2019-06-20T08:04:45.824Z,12.10
2019-06-20T08:07:14.115Z,10.50
2019-06-20T08:09:45.153Z,11.27
2019-06-20T08:12:12.631Z,9.97
2019-06-20T08:14:40.958Z,10.70
2019-06-20T08:17:09.271Z,12.10
2019-06-20T08:19:37.555Z,12.30
2019-06-20T08:22:05.889Z,10.90
2019-06-20T08:24:34.181Z,10.90
2019-06-20T08:27:03.248Z,11.17
2019-06-20T08:29:32.625Z,11.50
2019-06-20T08:32:02.688Z,11.57
2019-06-20T08:34:31.053Z,14.03
2019-06-20T08:37:00.550Z,11.70
2019-06-20T08:39:29.575Z,11.30
2019-06-20T08:41:59.209Z,10.10
2019-06-20T08:44:29.013Z,12.03
2019-06-20T08:46:59.247Z,13.00
2019-06-20T08:49:27.606Z,10.97
2019-06-20T08:51:57.274Z,12.03
2019-06-20T08:54:25.971Z,12.37
2019-06-20T08:56:57.354Z,12.37
2019-06-20T08:59:26.136Z,12.60
2019-06-20T09:01:56.605Z,13.30
2019-06-20T09:04:24.587Z,14.70
2019-06-20T09:06:55.168Z,13.33
2019-06-20T09:09:22.929Z,13.17
2019-06-20T09:11:51.234Z,11.40
2019-06-20T09:14:19.593Z,11.47
2019-06-20T09:16:47.954Z,11.13
2019-06-20T09:19:16.288Z,10.20
2019-06-20T09:21:44.579Z,9.70
2019-06-20T09:24:12.871Z,10.30
2019-06-20T09:26:41.999Z,10.40
2019-06-20T09:29:10.341Z,9.90
2019-06-20T09:31:38.643Z,10.80
2019-06-20T09:34:06.944Z,11.33
2019-06-20T09:36:35.378Z,11.90
2019-06-20T09:39:03.872Z,11.13
2019-06-20T09:41:32.158Z,10.90
2019-06-20T09:44:00.645Z,11.97
2019-06-20T09:46:29.090Z,12.27
2019-06-20T09:48:58.722Z,12.30
2019-06-20T09:51:27.082Z,12.73
2019-06-20T09:53:56.362Z,15.10
2019-06-20T09:56:24.691Z,13.40
2019-06-20T09:58:53.182Z,14.33
2019-06-20T10:01:21.486Z,14.03
2019-06-20T10:03:50.532Z,12.97
2019-06-20T10:06:18.946Z,13.60
2019-06-20T10:08:48.316Z,14.53
2019-06-20T10:11:16.801Z,12.67
2019-06-20T10:13:46.866Z,13.37
2019-06-20T10:16:16.229Z,13.23
2019-06-20T10:18:46.750Z,14.80
2019-06-20T10:21:14.610Z,13.83
2019-06-20T10:23:42.907Z,13.73
2019-06-20T10:26:11.765Z,14.23
2019-06-20T10:28:40.091Z,15.33
2019-06-20T10:31:08.563Z,14.57
2019-06-20T10:33:36.850Z,13.50
2019-06-20T10:36:05.369Z,14.50
2019-06-20T10:38:33.679Z,15.30
2019-06-20T10:41:01.992Z,14.33
2019-06-20T10:43:30.386Z,16.97
2019-06-20T10:45:58.703Z,18.00
2019-06-20T10:48:27.132Z,15.60
2019-06-20T10:50:57.445Z,16.97
2019-06-20T10:53:25.747Z,16.63
2019-06-20T10:55:54.148Z,17.73
2019-06-20T10:58:22.433Z,15.47
2019-06-20T11:00:51.212Z,15.13
2019-06-20T11:03:19.868Z,18.00
2019-06-20T11:05:48.266Z,19.20
2019-06-20T11:08:16.966Z,21.40
2019-06-20T11:10:47.660Z,21.13
2019-06-20T11:13:16.028Z,22.20
2019-06-20T11:15:44.356Z,19.90
2019-06-20T11:18:13.004Z,17.23
2019-06-20T11:20:42.676Z,17.63
2019-06-20T11:23:11.324Z,16.33
2019-06-20T11:25:40.333Z,17.03
2019-06-20T11:28:09.715Z,17.80
2019-06-20T11:30:52.624Z,17.60
2019-06-20T11:33:08.113Z,17.57
2019-06-20T11:35:37.742Z,17.37
2019-06-20T11:38:06.320Z,18.10
2019-06-20T11:40:35.378Z,17.40
2019-06-20T11:43:04.638Z,16.40
2019-06-20T11:45:35.413Z,16.17
2019-06-20T11:48:03.040Z,14.80
2019-06-20T11:50:31.376Z,13.17
2019-06-20T11:52:59.778Z,12.97
2019-06-20T11:55:28.138Z,14.23
2019-06-20T11:57:56.451Z,10.63
2019-06-20T12:00:24.936Z,10.43
2019-06-20T12:02:53.285Z,11.10
2019-06-20T12:05:21.598Z,9.87
2019-06-20T12:07:50.236Z,12.20
2019-06-20T12:10:20.401Z,11.47
2019-06-20T12:12:49.143Z,12.43
2019-06-20T12:15:17.883Z,13.60
2019-06-20T12:17:47.220Z,12.63
2019-06-20T12:20:15.926Z,12.13
2019-06-20T12:22:45.060Z,9.37
2019-06-20T12:25:15.348Z,10.33
2019-06-20T12:27:45.471Z,10.60
2019-06-20T12:30:17.528Z,9.03
2019-06-20T12:32:46.846Z,8.50
2019-06-20T12:35:15.823Z,7.30
2019-06-20T12:37:45.203Z,6.80
2019-06-20T12:40:13.787Z,6.60
2019-06-20T12:42:43.239Z,5.87
2019-06-20T12:45:12.258Z,5.40
2019-06-20T12:47:41.818Z,7.17
2019-06-20T12:50:10.463Z,6.00
2019-06-20T12:52:39.527Z,6.00
2019-06-20T12:55:09.260Z,5.00
2019-06-20T12:57:39.158Z,5.67
2019-06-20T13:00:08.723Z,4.87
2019-06-20T13:02:38.613Z,4.70
2019-06-20T13:05:08.192Z,3.70
2019-06-20T13:07:38.610Z,4.77
2019-06-20T13:10:09.603Z,3.90
2019-06-20T13:12:37.922Z,5.07
2019-06-20T13:15:06.272Z,3.80
2019-06-20T13:17:34.589Z,3.27
2019-06-20T13:20:03.325Z,3.80
2019-06-20T13:22:31.630Z,3.80
2019-06-20T13:25:00.004Z,3.23
2019-06-20T13:27:28.412Z,2.90
2019-06-20T13:29:56.876Z,3.40
2019-06-20T13:32:25.453Z,3.10
2019-06-20T13:34:53.816Z,3.50
2019-06-20T13:37:22.124Z,2.77
2019-06-20T13:39:50.778Z,3.10
2019-06-20T13:42:19.159Z,3.37
2019-06-20T13:44:47.639Z,2.00
2019-06-20T13:47:16.059Z,2.93
2019-06-20T13:49:45.563Z,3.03
2019-06-20T13:52:14.155Z,3.07
2019-06-20T13:54:44.638Z,3.80
2019-06-20T13:57:13.361Z,3.23
2019-06-20T13:59:41.807Z,4.10
2019-06-20T14:02:10.363Z,3.23
2019-06-20T14:04:41.040Z,3.77
2019-06-20T14:07:08.706Z,3.80
2019-06-20T14:09:36.989Z,4.63
2019-06-20T14:12:05.381Z,3.53
2019-06-20T14:14:33.824Z,3.70
2019-06-20T14:17:02.303Z,3.90
2019-06-20T14:19:30.711Z,4.57
2019-06-20T14:21:59.061Z,4.10
2019-06-20T14:24:27.551Z,2.87
2019-06-20T14:26:58.395Z,4.07
2019-06-20T14:29:26.721Z,4.60
2019-06-20T14:31:55.105Z,3.73
2019-06-20T14:34:23.465Z,4.60
2019-06-20T14:36:52.287Z,4.53
2019-06-20T14:39:21.808Z,4.00
2019-06-20T14:41:51.879Z,3.77
2019-06-20T14:44:20.209Z,4.70
2019-06-20T14:46:48.516Z,5.17
2019-06-20T14:49:16.852Z,4.50
2019-06-20T14:51:46.734Z,3.83
2019-06-20T14:54:15.311Z,4.63
2019-06-20T14:56:44.646Z,4.67
2019-06-20T14:59:13.732Z,4.57
2019-06-20T15:01:42.032Z,4.77
2019-06-20T15:04:10.314Z,4.13
2019-06-20T15:06:38.732Z,4.30
2019-06-20T15:09:08.073Z,4.60
2019-06-20T15:11:36.529Z,3.83
2019-06-20T15:14:04.925Z,4.77
2019-06-20T15:16:33.229Z,5.30
2019-06-20T15:19:01.515Z,4.60
2019-06-20T15:21:29.832Z,4.13
2019-06-20T15:23:58.230Z,3.50
2019-06-20T15:26:26.678Z,4.70
2019-06-20T15:28:55.575Z,6.20
2019-06-20T15:31:24.968Z,6.50
2019-06-20T15:33:53.782Z,5.37
2019-06-20T15:36:23.447Z,4.70
2019-06-20T15:38:53.005Z,4.60
2019-06-20T15:41:21.406Z,4.90
2019-06-20T15:43:49.899Z,5.20
2019-06-20T15:46:18.317Z,5.40
2019-06-20T15:48:46.784Z,4.90
2019-06-20T15:51:15.096Z,4.13
2019-06-20T15:53:43.396Z,4.40
2019-06-20T15:56:11.892Z,4.93
2019-06-20T15:58:41.829Z,5.10
2019-06-20T16:01:10.119Z,4.83
2019-06-20T16:03:38.418Z,4.10
2019-06-20T16:06:06.816Z,4.80
2019-06-20T16:08:35.352Z,2.33
2019-06-20T16:11:03.704Z,2.00
2019-06-20T16:13:32.080Z,1.27
2019-06-20T16:16:03.193Z,0.70
2019-06-20T16:18:31.663Z,1.97
2019-06-20T16:20:59.952Z,0.93
2019-06-20T16:23:28.227Z,1.30
2019-06-20T16:25:56.714Z,0.90
2019-06-20T16:28:25.052Z,1.37
2019-06-20T16:31:07.921Z,1.40
2019-06-20T16:33:25.481Z,1.60
2019-06-20T16:35:53.697Z,1.83
2019-06-20T16:38:22.183Z,1.50
2019-06-20T16:40:50.539Z,3.73
2019-06-20T16:43:18.853Z,3.27
2019-06-20T16:45:47.160Z,3.10
2019-06-20T16:48:15.501Z,2.67
2019-06-20T16:50:43.923Z,2.73
2019-06-20T16:53:12.299Z,3.00
2019-06-20T16:55:43.735Z,3.13
2019-06-20T16:58:12.176Z,3.40
2019-06-20T17:00:40.711Z,4.50
2019-06-20T17:03:09.069Z,4.43
2019-06-20T17:05:39.150Z,4.27
2019-06-20T17:08:07.495Z,3.57
2019-06-20T17:10:35.785Z,4.40
2019-06-20T17:13:04.380Z,3.57
2019-06-20T17:15:32.925Z,3.07
2019-06-20T17:18:04.079Z,3.47
2019-06-20T17:20:32.622Z,3.30
2019-06-20T17:23:01.069Z,3.63
2019-06-20T17:25:29.418Z,2.87
2019-06-20T17:27:57.868Z,3.30
2019-06-20T17:30:27.881Z,2.20
2019-06-20T17:32:56.274Z,2.43
2019-06-20T17:35:24.582Z,2.13
2019-06-20T17:37:52.946Z,1.57
2019-06-20T17:40:21.268Z,2.30
2019-06-20T17:42:49.646Z,1.57
2019-06-20T17:45:18.082Z,1.83
2019-06-20T17:47:46.454Z,2.10
2019-06-20T17:50:14.848Z,2.10
2019-06-20T17:52:43.126Z,1.80
2019-06-20T17:55:11.606Z,2.20
2019-06-20T17:57:39.943Z,2.00
2019-06-20T18:00:10.731Z,1.90
2019-06-20T18:02:39.741Z,1.67
2019-06-20T18:05:08.422Z,1.60
2019-06-20T18:07:36.760Z,1.43
2019-06-20T18:10:08.382Z,1.87
2019-06-20T18:12:36.656Z,1.87
2019-06-20T18:15:07.068Z,2.13
2019-06-20T18:17:35.368Z,1.70
2019-06-20T18:20:06.026Z,1.90
2019-06-20T18:22:34.445Z,2.10
2019-06-20T18:25:02.734Z,3.17
2019-06-20T18:27:31.285Z,2.13
2019-06-20T18:29:59.814Z,2.20
2019-06-20T18:32:29.711Z,2.30
2019-06-20T18:35:02.495Z,2.60
2019-06-20T18:37:32.074Z,2.20
2019-06-20T18:40:00.477Z,2.20
2019-06-20T18:42:28.924Z,2.30
2019-06-20T18:44:57.340Z,2.80
2019-06-20T18:47:25.617Z,1.80
2019-06-20T18:49:54.069Z,2.77
2019-06-20T18:52:22.439Z,2.00
2019-06-20T18:54:51.461Z,2.20
2019-06-20T18:57:19.802Z,2.27
2019-06-20T18:59:48.079Z,2.47
2019-06-20T19:02:16.504Z,2.47
2019-06-20T19:04:50.716Z,2.37
2019-06-20T19:07:17.335Z,2.27
2019-06-20T19:09:45.722Z,2.23
2019-06-20T19:12:14.235Z,2.53
2019-06-20T19:14:42.567Z,1.83
2019-06-20T19:17:14.546Z,2.00
2019-06-20T19:19:41.083Z,1.93
2019-06-20T19:22:09.475Z,2.43
2019-06-20T19:24:37.759Z,1.77
2019-06-20T19:27:09.097Z,1.90
2019-06-20T19:29:37.688Z,2.13
2019-06-20T19:32:07.774Z,1.87
2019-06-20T19:34:36.634Z,2.77
2019-06-20T19:37:05.111Z,2.30
2019-06-20T19:39:33.415Z,2.17
2019-06-20T19:42:01.736Z,2.13
2019-06-20T19:44:30.187Z,2.30
2019-06-20T19:46:58.617Z,2.53
2019-06-20T19:49:27.141Z,2.50
2019-06-20T19:51:56.003Z,2.63
2019-06-20T19:54:24.356Z,2.50
2019-06-20T19:56:52.778Z,2.00
2019-06-20T19:59:21.165Z,2.30
2019-06-20T20:01:49.712Z,3.00
2019-06-20T20:04:18.024Z,1.97
2019-06-20T20:06:46.345Z,3.00
2019-06-20T20:09:14.642Z,2.37
2019-06-20T20:11:42.958Z,2.43
2019-06-20T20:14:11.230Z,2.17
2019-06-20T20:16:40.226Z,3.00
2019-06-20T20:19:08.566Z,2.57
2019-06-20T20:21:36.878Z,2.80
2019-06-20T20:24:05.173Z,2.70
2019-06-20T20:26:33.620Z,2.47
2019-06-20T20:29:02.023Z,2.90
2019-06-20T20:31:30.504Z,2.57
2019-06-20T20:33:59.629Z,2.77
2019-06-20T20:36:27.909Z,2.27
2019-06-20T20:38:56.296Z,2.43
2019-06-20T20:41:24.597Z,3.40
2019-06-20T20:43:52.903Z,2.10
2019-06-20T20:46:21.275Z,2.30
2019-06-20T20:48:49.699Z,2.03
2019-06-20T20:51:17.981Z,2.67
2019-06-20T20:53:46.316Z,2.80
2019-06-20T20:56:14.819Z,2.73
2019-06-20T20:58:43.085Z,2.50
2019-06-20T21:01:31.133Z,3.03
2019-06-20T21:04:00.422Z,2.43
2019-06-20T21:06:29.348Z,3.57
2019-06-20T21:08:57.722Z,2.20
2019-06-20T21:11:26.072Z,2.90
2019-06-20T21:13:54.970Z,2.30
2019-06-20T21:16:23.269Z,3.40
2019-06-20T21:18:51.799Z,2.63
2019-06-20T21:21:20.090Z,3.53
2019-06-20T21:23:48.448Z,3.00
2019-06-20T21:26:16.774Z,3.17
2019-06-20T21:28:45.062Z,3.07
2019-06-20T21:31:13.649Z,3.20
2019-06-20T21:33:41.985Z,3.10
2019-06-20T21:36:10.387Z,3.07
2019-06-20T21:38:38.791Z,3.47
2019-06-20T21:41:07.119Z,2.93
2019-06-20T21:43:35.459Z,2.90
2019-06-20T21:46:06.644Z,3.50
2019-06-20T21:48:33.817Z,2.70
2019-06-20T21:51:02.204Z,3.03
2019-06-20T21:53:30.483Z,2.40
2019-06-20T21:55:59.418Z,3.10
2019-06-20T21:58:28.031Z,2.90
2019-06-20T22:00:57.158Z,3.00
2019-06-20T22:03:25.470Z,2.63
2019-06-20T22:05:53.818Z,2.80
2019-06-20T22:08:22.160Z,2.50
2019-06-20T22:10:50.574Z,2.57
2019-06-20T22:13:19.166Z,2.50
2019-06-20T22:15:48.007Z,3.37
2019-06-20T22:18:16.292Z,3.07
2019-06-20T22:20:44.625Z,2.87
2019-06-20T22:23:12.940Z,2.90
2019-06-20T22:25:41.323Z,4.00
2019-06-20T22:28:09.708Z,3.07
2019-06-20T22:30:54.881Z,2.90
2019-06-20T22:33:23.253Z,3.30
2019-06-20T22:35:51.757Z,3.60
2019-06-20T22:38:20.156Z,3.27
2019-06-20T22:40:48.515Z,3.43
2019-06-20T22:43:16.826Z,2.83
2019-06-20T22:45:45.229Z,3.73
2019-06-20T22:48:13.651Z,3.87
2019-06-20T22:50:42.017Z,4.00
2019-06-20T22:53:10.392Z,4.73
2019-06-20T22:55:38.827Z,4.50
2019-06-20T22:58:07.251Z,3.50
2019-06-20T23:00:35.732Z,3.90
2019-06-20T23:03:05.071Z,3.30
2019-06-20T23:05:33.434Z,3.73
2019-06-20T23:08:01.953Z,3.30
2019-06-20T23:10:30.439Z,3.90
2019-06-20T23:12:58.921Z,3.60
2019-06-20T23:15:27.222Z,3.40
2019-06-20T23:17:55.625Z,3.10
2019-06-20T23:20:24.135Z,3.47
2019-06-20T23:22:53.158Z,3.43
2019-06-20T23:25:21.451Z,3.83
2019-06-20T23:27:49.879Z,3.77
2019-06-20T23:30:18.323Z,3.80
2019-06-20T23:32:46.606Z,4.43
2019-06-20T23:35:14.927Z,4.40
2019-06-20T23:37:43.240Z,4.20
2019-06-20T23:40:11.639Z,4.50
2019-06-20T23:42:39.950Z,5.10
2019-06-20T23:45:09.022Z,5.37
2019-06-20T23:47:37.699Z,5.03
2019-06-20T23:50:06.788Z,4.27
2019-06-20T23:52:45.467Z,4.07
2019-06-20T23:55:13.791Z,4.13
2019-06-20T23:57:43.745Z,4.60
